createdAt,value
2022-09-14T00:00:27.014Z,66.733333
2022-09-14T00:05:30.320Z,67.733333
2022-09-14T00:10:32.290Z,67.733333
2022-09-14T00:15:35.888Z,66.800000
2022-09-14T00:20:19.092Z,66.800000
2022-09-14T00:25:21.900Z,67.466667
2022-09-14T00:30:25.243Z,67.285714
2022-09-14T00:35:28.053Z,70.266667
2022-09-14T00:40:30.554Z,71.333333
2022-09-14T00:45:34.133Z,73.533333
2022-09-14T00:50:16.813Z,77.200000
2022-09-14T00:55:20.132Z,83.666667
2022-09-14T01:00:21.802Z,88.666667
2022-09-14T01:05:24.208Z,90.928571
2022-09-14T01:10:27.043Z,92.266667
2022-09-14T01:15:30.813Z,93.133333
2022-09-14T01:20:33.849Z,94.000000
2022-09-14T01:25:16.642Z,94.266667
2022-09-14T01:30:19.618Z,95.000000
2022-09-14T01:35:22.007Z,95.000000
2022-09-14T01:40:24.618Z,95.071429
2022-09-14T01:45:27.248Z,95.333333
2022-09-14T01:50:30.529Z,96.000000
2022-09-14T01:55:33.596Z,96.000000
2022-09-14T02:00:16.070Z,96.000000
2022-09-14T02:05:18.895Z,96.000000
2022-09-14T02:10:22.268Z,96.000000
2022-09-14T02:15:25.843Z,96.000000
2022-09-14T02:20:29.469Z,96.133333
2022-09-14T02:25:32.810Z,97.000000
2022-09-14T02:30:16.542Z,97.000000
2022-09-14T02:35:19.300Z,97.000000
2022-09-14T02:40:22.861Z,97.000000
2022-09-14T02:45:25.589Z,97.000000
2022-09-14T02:50:28.363Z,97.000000
2022-09-14T02:55:32.241Z,97.000000
2022-09-14T03:00:35.417Z,97.000000
2022-09-14T03:05:17.927Z,97.000000
2022-09-14T03:10:20.897Z,97.000000
2022-09-14T03:15:24.162Z,97.000000
2022-09-14T03:20:27.220Z,97.000000
2022-09-14T03:25:30.030Z,97.800000
2022-09-14T03:30:33.835Z,98.000000
2022-09-14T03:35:35.516Z,98.000000
2022-09-14T03:40:21.861Z,98.000000
2022-09-14T03:45:21.099Z,98.000000
2022-09-14T03:50:24.301Z,98.000000
2022-09-14T03:55:27.939Z,98.000000
2022-09-14T04:00:30.797Z,98.000000
2022-09-14T04:05:35.577Z,98.000000
2022-09-14T04:10:19.112Z,98.000000
2022-09-14T04:15:24.119Z,98.214286
2022-09-14T04:20:27.794Z,98.800000
2022-09-14T04:25:32.730Z,99.000000
2022-09-14T04:30:33.391Z,99.000000
2022-09-14T04:35:16.275Z,99.000000
2022-09-14T04:40:20.753Z,99.000000
2022-09-14T04:45:26.461Z,99.000000
2022-09-14T04:50:30.125Z,99.000000
2022-09-14T04:55:33.105Z,99.000000
2022-09-14T05:00:36.110Z,99.000000
2022-09-14T05:05:18.476Z,99.000000
2022-09-14T05:10:21.797Z,99.000000
2022-09-14T05:15:26.998Z,99.000000
2022-09-14T05:20:29.069Z,99.000000
2022-09-14T05:25:33.035Z,99.000000
2022-09-14T05:30:17.064Z,99.000000
2022-09-14T05:35:22.043Z,99.000000
2022-09-14T05:40:25.726Z,99.000000
2022-09-14T05:45:30.837Z,99.000000
2022-09-14T05:50:33.982Z,99.000000
2022-09-14T05:55:18.133Z,99.000000
2022-09-14T06:00:23.151Z,99.000000
2022-09-14T06:05:25.912Z,99.000000
2022-09-14T06:10:28.735Z,99.000000
2022-09-14T06:15:32.427Z,99.000000
2022-09-14T06:20:15.964Z,99.000000
2022-09-14T06:25:20.362Z,99.000000
2022-09-14T06:30:24.190Z,99.000000
2022-09-14T06:35:27.079Z,99.000000
2022-09-14T06:40:31.023Z,99.000000
2022-09-14T06:45:34.286Z,99.000000
2022-09-14T06:50:17.442Z,99.000000
2022-09-14T06:55:19.103Z,99.000000
2022-09-14T07:00:22.010Z,99.000000
2022-09-14T07:05:24.577Z,99.000000
2022-09-14T07:10:28.092Z,99.000000
2022-09-14T07:15:32.480Z,99.000000
2022-09-14T07:20:16.976Z,99.000000
2022-09-14T07:25:19.877Z,99.000000
2022-09-14T07:30:23.669Z,99.000000
2022-09-14T07:35:26.408Z,99.000000
2022-09-14T07:40:29.697Z,99.000000
2022-09-14T07:45:33.193Z,99.000000
2022-09-14T07:50:16.929Z,99.000000
2022-09-14T07:55:20.891Z,99.000000
2022-09-14T08:00:24.789Z,99.000000
2022-09-14T08:05:29.337Z,99.000000
2022-09-14T08:10:31.598Z,99.000000
2022-09-14T08:15:35.104Z,99.000000
2022-09-14T08:20:17.551Z,99.000000
2022-09-14T08:25:20.617Z,99.000000
2022-09-14T08:30:23.910Z,99.000000
2022-09-14T08:35:53.933Z,99.000000
2022-09-14T08:40:32.790Z,99.000000
2022-09-14T08:45:36.388Z,99.000000
2022-09-14T08:50:19.672Z,99.000000
2022-09-14T08:55:24.002Z,99.000000
2022-09-14T09:00:27.648Z,99.000000
2022-09-14T09:05:31.976Z,99.000000
2022-09-14T09:10:35.403Z,99.000000
2022-09-14T09:15:19.237Z,99.000000
2022-09-14T09:20:22.272Z,99.000000
2022-09-14T09:25:25.252Z,99.000000
2022-09-14T09:30:28.765Z,99.000000
2022-09-14T09:35:32.678Z,99.000000
2022-09-14T09:40:16.481Z,99.000000
2022-09-14T09:45:19.774Z,99.000000
2022-09-14T09:50:24.153Z,99.000000
2022-09-14T09:55:26.794Z,99.000000
2022-09-14T10:00:31.549Z,99.000000
2022-09-14T10:05:35.141Z,99.000000
2022-09-14T10:10:18.284Z,99.000000
2022-09-14T10:15:23.856Z,99.000000
2022-09-14T10:20:24.923Z,99.000000
2022-09-14T10:25:28.735Z,99.000000
2022-09-14T10:30:31.891Z,99.000000
2022-09-14T10:35:36.480Z,99.000000
2022-09-14T10:40:19.903Z,99.000000
2022-09-14T10:45:24.642Z,99.000000
2022-09-14T10:50:26.711Z,99.000000
2022-09-14T10:55:30.689Z,99.000000
2022-09-14T11:00:33.484Z,99.000000
2022-09-14T11:05:17.117Z,99.000000
2022-09-14T11:10:20.907Z,99.000000
2022-09-14T11:15:24.531Z,99.000000
2022-09-14T11:20:29.076Z,99.000000
2022-09-14T11:25:32.871Z,99.000000
2022-09-14T11:30:17.525Z,99.000000
2022-09-14T11:35:20.856Z,99.000000
2022-09-14T11:40:25.108Z,99.000000
2022-09-14T11:45:30.966Z,99.000000
2022-09-14T11:50:34.054Z,99.000000
2022-09-14T11:55:17.551Z,99.000000
2022-09-14T12:00:21.430Z,99.000000
2022-09-14T12:05:24.895Z,99.000000
2022-09-14T12:10:29.293Z,99.000000
2022-09-14T12:15:31.550Z,99.000000
2022-09-14T12:20:34.560Z,99.000000
2022-09-14T12:25:17.515Z,99.000000
2022-09-14T12:30:21.420Z,99.000000
2022-09-14T12:35:27.957Z,99.000000
2022-09-14T12:40:30.378Z,99.000000
2022-09-14T12:45:34.510Z,99.000000
2022-09-14T12:50:18.356Z,99.000000
2022-09-14T12:55:22.049Z,99.000000
2022-09-14T13:00:26.345Z,99.000000
2022-09-14T13:05:30.632Z,99.000000
2022-09-14T13:10:36.160Z,99.000000
2022-09-14T13:15:19.004Z,99.000000
2022-09-14T13:20:22.173Z,99.000000
2022-09-14T13:25:27.617Z,99.000000
2022-09-14T13:30:30.610Z,99.000000
2022-09-14T13:35:34.707Z,99.000000
2022-09-14T13:40:18.483Z,99.000000
2022-09-14T13:45:22.862Z,99.000000
2022-09-14T13:50:27.461Z,99.000000
2022-09-14T13:55:30.799Z,99.000000
2022-09-14T14:00:34.247Z,99.000000
2022-09-14T14:05:19.528Z,99.000000
2022-09-14T14:10:21.649Z,99.000000
2022-09-14T14:15:25.632Z,99.000000
2022-09-14T14:20:28.866Z,99.000000
2022-09-14T14:25:32.491Z,99.000000
2022-09-14T14:30:17.970Z,99.000000
2022-09-14T14:35:21.318Z,99.000000
2022-09-14T14:40:24.456Z,99.000000
2022-09-14T14:45:31.373Z,99.000000
2022-09-14T14:50:32.413Z,99.000000
2022-09-14T14:55:35.869Z,99.000000
2022-09-14T15:00:19.587Z,99.000000
2022-09-14T15:05:24.716Z,99.000000
2022-09-14T15:10:27.584Z,99.000000
2022-09-14T15:15:31.027Z,99.000000
2022-09-14T15:20:34.871Z,99.000000
2022-09-14T15:25:17.941Z,99.000000
2022-09-14T15:30:21.396Z,99.000000
2022-09-14T15:35:24.956Z,99.000000
2022-09-14T15:40:28.455Z,99.000000
2022-09-14T15:45:33.696Z,98.333333
2022-09-14T15:50:34.999Z,96.866667
2022-09-14T15:55:19.823Z,94.600000
2022-09-14T16:00:23.341Z,89.928571
2022-09-14T16:05:26.583Z,84.133333
2022-09-14T16:10:30.113Z,82.000000
2022-09-14T16:15:35.628Z,80.266667
2022-09-14T16:20:19.453Z,79.866667
2022-09-14T16:25:21.328Z,79.133333
2022-09-14T16:30:25.549Z,79.142857
2022-09-14T16:35:29.800Z,78.333333
2022-09-14T16:40:32.805Z,79.666667
2022-09-14T16:45:36.672Z,80.400000
2022-09-14T16:50:18.260Z,79.133333
2022-09-14T16:55:21.934Z,78.600000
2022-09-14T17:00:25.067Z,76.714286
2022-09-14T17:05:29.054Z,75.600000
2022-09-14T17:10:32.205Z,77.066667
2022-09-14T17:15:36.888Z,79.200000
2022-09-14T17:20:18.714Z,79.600000
2022-09-14T17:25:24.347Z,80.214286
2022-09-14T17:30:26.411Z,81.000000
2022-09-14T17:35:30.590Z,80.600000
2022-09-14T17:40:34.608Z,79.466667
2022-09-14T17:45:17.628Z,77.800000
2022-09-14T17:50:21.318Z,77.133333
2022-09-14T17:55:24.280Z,75.857143
2022-09-14T18:00:28.582Z,75.533333
2022-09-14T18:05:30.809Z,76.066667
2022-09-14T18:10:35.250Z,77.533333
2022-09-14T18:15:18.817Z,80.600000
2022-09-14T18:20:21.683Z,85.266667
2022-09-14T18:25:26.414Z,87.285714
2022-09-14T18:30:28.899Z,88.066667
2022-09-14T18:35:33.095Z,88.600000
2022-09-14T18:40:20.179Z,89.000000
2022-09-14T18:45:19.329Z,88.933333
2022-09-14T18:50:24.826Z,89.357143
2022-09-14T18:55:28.203Z,89.800000
2022-09-14T19:00:31.285Z,89.200000
2022-09-14T19:05:34.833Z,88.466667
2022-09-14T19:10:18.123Z,86.333333
2022-09-14T19:15:22.109Z,84.000000
2022-09-14T19:20:31.281Z,81.357143
2022-09-14T19:25:28.181Z,80.466667
2022-09-14T19:30:32.286Z,80.066667
2022-09-14T19:35:36.223Z,80.266667
2022-09-14T19:40:19.120Z,79.200000
2022-09-14T19:45:23.222Z,80.928571
2022-09-14T19:50:27.237Z,80.400000
2022-09-14T19:55:30.491Z,78.200000
2022-09-14T20:00:35.647Z,77.800000
2022-09-14T20:05:19.110Z,76.333333
2022-09-14T20:10:23.201Z,72.857143
2022-09-14T20:15:26.148Z,73.200000
2022-09-14T20:20:30.986Z,71.866667
2022-09-14T20:25:33.319Z,71.866667
2022-09-14T20:30:17.552Z,71.533333
2022-09-14T20:35:20.845Z,69.266667
2022-09-14T20:40:24.329Z,68.500000
2022-09-14T20:45:28.998Z,68.400000
2022-09-14T20:50:32.022Z,67.066667
2022-09-14T20:55:35.718Z,67.066667
2022-09-14T21:00:18.909Z,66.866667
2022-09-14T21:05:23.376Z,67.500000
2022-09-14T21:10:29.321Z,68.000000
2022-09-14T21:15:30.649Z,67.800000
2022-09-14T21:20:33.466Z,68.200000
2022-09-14T21:25:16.949Z,67.933333
2022-09-14T21:30:20.299Z,68.533333
2022-09-14T21:35:24.218Z,68.142857
2022-09-14T21:40:28.357Z,68.800000
2022-09-14T21:45:31.021Z,68.533333
2022-09-14T21:50:35.442Z,68.066667
2022-09-14T21:55:17.357Z,68.333333
2022-09-14T22:00:21.278Z,68.466667
2022-09-14T22:05:24.310Z,68.642857
2022-09-14T22:10:27.461Z,68.533333
2022-09-14T22:15:31.717Z,68.933333
2022-09-14T22:20:34.266Z,68.200000
2022-09-14T22:25:17.635Z,68.266667
2022-09-14T22:30:21.592Z,68.133333
2022-09-14T22:35:25.234Z,68.071429
2022-09-14T22:40:29.074Z,68.400000
2022-09-14T22:45:33.079Z,68.000000
2022-09-14T22:50:36.099Z,68.200000
2022-09-14T22:55:19.031Z,67.533333
2022-09-14T23:00:23.052Z,67.571429
2022-09-14T23:05:26.983Z,67.533333
2022-09-14T23:10:29.132Z,67.133333
2022-09-14T23:15:33.241Z,68.600000
2022-09-14T23:20:16.924Z,70.866667
2022-09-14T23:25:21.942Z,71.466667
2022-09-14T23:30:24.764Z,71.714286
2022-09-14T23:35:27.804Z,72.000000
2022-09-14T23:40:32.838Z,71.066667
2022-09-14T23:45:35.270Z,71.200000
2022-09-14T23:50:18.330Z,71.466667
2022-09-14T23:55:23.445Z,71.266667
